createdAt,value
2019-01-24T00:02:15.100Z,76.20
2019-01-24T00:07:16.249Z,76.70
2019-01-24T00:12:17.378Z,66.97
2019-01-24T00:17:18.501Z,70.40
2019-01-24T00:22:19.607Z,68.70
2019-01-24T00:27:20.830Z,71.87
2019-01-24T00:32:21.945Z,64.77
2019-01-24T00:37:23.161Z,63.70
2019-01-24T00:42:24.280Z,71.43
2019-01-24T00:47:25.380Z,68.63
2019-01-24T00:52:26.489Z,69.13
2019-01-24T00:57:27.594Z,77.57
2019-01-24T01:02:28.689Z,74.40
2019-01-24T01:07:29.813Z,77.80
2019-01-24T01:12:30.934Z,74.57
2019-01-24T01:17:32.028Z,69.27
2019-01-24T01:22:33.126Z,73.90
2019-01-24T01:27:34.264Z,82.00
2019-01-24T01:32:35.364Z,69.60
2019-01-24T01:37:36.559Z,76.93
2019-01-24T01:42:37.762Z,78.33
2019-01-24T01:47:38.860Z,75.90
2019-01-24T01:52:40.059Z,82.90
2019-01-24T01:57:41.175Z,77.23
2019-01-24T02:02:42.282Z,69.27
2019-01-24T02:07:43.498Z,76.40
2019-01-24T02:12:44.694Z,78.60
2019-01-24T02:17:46.396Z,84.37
2019-01-24T02:22:47.595Z,83.33
2019-01-24T02:27:48.886Z,87.00
2019-01-24T02:32:50.195Z,80.97
2019-01-24T02:37:51.495Z,83.80
2019-01-24T02:42:52.605Z,88.60
2019-01-24T02:47:53.713Z,81.87
2019-01-24T02:52:54.806Z,80.77
2019-01-24T02:57:55.927Z,77.13
2019-01-24T03:02:57.022Z,81.50
2019-01-24T03:07:58.127Z,78.50
2019-01-24T03:12:59.215Z,76.57
2019-01-24T03:18:00.316Z,77.27
2019-01-24T03:23:01.408Z,74.73
2019-01-24T03:28:03.419Z,80.97
2019-01-24T03:33:04.549Z,77.43
2019-01-24T03:38:05.639Z,72.77
2019-01-24T03:43:06.736Z,81.37
2019-01-24T03:48:07.834Z,74.13
2019-01-24T03:53:09.131Z,78.00
2019-01-24T03:58:10.342Z,81.30
2019-01-24T04:03:11.443Z,93.57
2019-01-24T04:08:12.558Z,74.07
2019-01-24T04:13:13.655Z,77.10
2019-01-24T04:18:14.851Z,76.23
2019-01-24T04:23:15.938Z,74.30
2019-01-24T04:28:17.037Z,62.90
2019-01-24T04:33:18.139Z,76.23
2019-01-24T04:38:19.240Z,73.17
2019-01-24T04:43:20.341Z,83.70
2019-01-24T04:48:21.409Z,70.97
2019-01-24T04:53:22.515Z,72.83
2019-01-24T04:58:23.603Z,75.53
2019-01-24T05:03:24.723Z,78.43
2019-01-24T05:08:25.823Z,79.27
2019-01-24T05:13:26.928Z,89.00
2019-01-24T05:18:28.020Z,83.73
2019-01-24T05:23:29.114Z,77.83
2019-01-24T05:28:30.216Z,83.60
2019-01-24T05:33:31.306Z,78.73
2019-01-24T05:38:32.531Z,94.90
2019-01-24T05:43:33.731Z,84.00
2019-01-24T05:48:34.829Z,84.80
2019-01-24T05:53:35.946Z,81.13
2019-01-24T05:58:37.096Z,81.27
2019-01-24T06:03:44.815Z,78.33
2019-01-24T06:08:45.928Z,100.90
2019-01-24T06:13:47.036Z,85.17
2019-01-24T06:18:48.244Z,94.03
2019-01-24T06:23:49.335Z,102.20
2019-01-24T06:28:50.481Z,90.77
2019-01-24T06:33:51.576Z,85.67
2019-01-24T06:38:52.672Z,85.47
2019-01-24T06:43:53.779Z,87.97
2019-01-24T06:48:54.864Z,101.17
2019-01-24T06:53:55.962Z,85.57
2019-01-24T06:58:57.075Z,89.10
2019-01-24T07:03:58.170Z,83.47
2019-01-24T07:08:59.388Z,98.50
2019-01-24T07:14:00.465Z,99.47
2019-01-24T07:19:01.567Z,97.90
2019-01-24T07:24:02.865Z,93.63
2019-01-24T07:29:04.187Z,90.20
2019-01-24T07:34:05.392Z,97.97
2019-01-24T07:39:06.806Z,83.60
2019-01-24T07:44:07.931Z,103.90
2019-01-24T07:49:09.035Z,93.67
2019-01-24T07:54:10.237Z,88.50
2019-01-24T07:59:11.336Z,92.17
2019-01-24T08:04:12.429Z,89.10
2019-01-24T08:09:13.557Z,93.10
2019-01-24T08:14:14.649Z,93.40
2019-01-24T08:19:15.844Z,87.03
2019-01-24T08:24:16.976Z,83.60
2019-01-24T08:29:18.083Z,87.17
2019-01-24T08:34:19.278Z,82.00
2019-01-24T08:39:20.388Z,87.27
2019-01-24T08:44:21.591Z,83.00
2019-01-24T08:49:22.678Z,94.77
2019-01-24T08:54:23.780Z,89.17
2019-01-24T08:59:29.433Z,89.63
2019-01-24T09:04:27.899Z,81.53
2019-01-24T09:09:29.024Z,83.43
2019-01-24T09:14:30.122Z,89.87
2019-01-24T09:19:31.255Z,96.13
2019-01-24T09:24:32.445Z,85.87
2019-01-24T09:29:33.552Z,87.27
2019-01-24T09:34:34.647Z,83.53
2019-01-24T09:39:35.744Z,70.77
2019-01-24T09:44:36.950Z,80.67
2019-01-24T09:49:38.163Z,89.20
2019-01-24T09:54:39.284Z,83.33
2019-01-24T09:59:40.385Z,80.23
2019-01-24T10:04:41.497Z,76.27
2019-01-24T10:09:42.629Z,85.57
2019-01-24T10:14:43.735Z,87.23
2019-01-24T10:19:44.935Z,73.43
2019-01-24T10:24:46.035Z,79.23
2019-01-24T10:29:47.159Z,74.90
2019-01-24T10:34:48.255Z,70.33
2019-01-24T10:39:49.374Z,71.57
2019-01-24T10:44:50.480Z,66.37
2019-01-24T10:49:51.577Z,63.50
2019-01-24T10:54:52.681Z,71.37
2019-01-24T10:59:53.786Z,68.17
2019-01-24T11:04:54.875Z,66.07
2019-01-24T11:09:56.035Z,61.87
2019-01-24T11:14:57.138Z,60.40
2019-01-24T11:19:58.313Z,56.23
2019-01-24T11:24:59.405Z,62.60
2019-01-24T11:30:00.504Z,59.83
2019-01-24T11:35:01.701Z,58.57
2019-01-24T11:40:06.616Z,61.53
2019-01-24T11:45:10.134Z,66.77
2019-01-24T11:50:13.662Z,66.37
2019-01-24T11:55:17.154Z,60.73
2019-01-24T12:00:34.471Z,66.53
2019-01-24T12:05:35.715Z,61.63
2019-01-24T12:10:37.078Z,64.00
2019-01-24T12:15:38.268Z,60.53
2019-01-24T12:20:39.493Z,56.57
2019-01-24T12:25:40.784Z,63.53
2019-01-24T12:30:41.972Z,52.53
2019-01-24T12:35:43.276Z,54.60
2019-01-24T12:40:44.371Z,74.00
2019-01-24T12:45:45.574Z,59.13
2019-01-24T12:50:49.128Z,60.03
2019-01-24T12:55:50.319Z,60.37
2019-01-24T13:00:52.741Z,54.37
2019-01-24T13:05:55.353Z,55.37
2019-01-24T13:10:56.473Z,53.60
2019-01-24T13:15:57.578Z,50.17
2019-01-24T13:20:58.844Z,51.97
2019-01-24T13:25:59.940Z,55.80
2019-01-24T13:31:01.052Z,58.37
2019-01-24T13:36:02.273Z,56.90
2019-01-24T13:41:03.648Z,55.53
2019-01-24T13:46:05.215Z,51.90
2019-01-24T13:51:06.572Z,58.83
2019-01-24T13:56:07.680Z,52.80
2019-01-24T14:01:08.925Z,58.10
2019-01-24T14:06:10.127Z,56.67
2019-01-24T14:11:17.867Z,61.47
2019-01-24T14:16:14.613Z,55.07
2019-01-24T14:21:16.097Z,58.67
2019-01-24T14:26:17.575Z,60.33
2019-01-24T14:31:18.684Z,68.30
2019-01-24T14:36:25.299Z,61.77
2019-01-24T14:41:24.743Z,59.13
2019-01-24T14:46:25.963Z,54.53
2019-01-24T14:51:28.086Z,60.60
2019-01-24T14:56:29.208Z,60.40
2019-01-24T15:01:30.453Z,66.70
2019-01-24T15:06:31.552Z,66.10
2019-01-24T15:11:32.693Z,79.00
2019-01-24T15:16:34.003Z,67.80
2019-01-24T15:21:36.006Z,80.63
2019-01-24T15:26:37.228Z,80.50
2019-01-24T15:31:38.470Z,77.47
2019-01-24T15:36:39.580Z,78.63
2019-01-24T15:41:40.689Z,81.37
2019-01-24T15:46:41.799Z,79.17
2019-01-24T15:51:42.902Z,78.00
2019-01-24T15:56:44.036Z,74.03
2019-01-24T16:01:45.296Z,71.87
2019-01-24T16:06:46.404Z,74.13
2019-01-24T16:11:47.556Z,86.60
2019-01-24T16:16:48.757Z,83.37
2019-01-24T16:21:49.876Z,87.03
2019-01-24T16:26:51.112Z,85.83
2019-01-24T16:31:52.475Z,87.90
2019-01-24T16:36:53.675Z,81.17
2019-01-24T16:41:54.817Z,86.80
2019-01-24T16:46:55.921Z,86.63
2019-01-24T16:51:57.159Z,83.60
2019-01-24T16:56:58.271Z,88.53
2019-01-24T17:02:01.335Z,87.33
2019-01-24T17:07:02.880Z,86.10
2019-01-24T17:12:04.238Z,98.33
2019-01-24T17:17:05.519Z,90.43
2019-01-24T17:22:06.831Z,88.70
2019-01-24T17:27:07.951Z,96.67
2019-01-24T17:32:09.037Z,98.30
2019-01-24T17:37:10.139Z,91.77
2019-01-24T17:42:11.278Z,86.40
2019-01-24T17:47:12.369Z,90.97
2019-01-24T17:52:13.509Z,82.97
2019-01-24T17:57:15.295Z,101.50
2019-01-24T18:02:16.704Z,88.37
2019-01-24T18:07:17.916Z,91.97
2019-01-24T18:12:19.179Z,87.57
2019-01-24T18:17:20.380Z,91.90
2019-01-24T18:22:21.587Z,80.83
2019-01-24T18:27:22.783Z,88.37
2019-01-24T18:32:24.052Z,82.60
2019-01-24T18:37:25.185Z,87.13
2019-01-24T18:42:26.617Z,91.57
2019-01-24T18:47:28.081Z,91.47
2019-01-24T18:52:29.227Z,85.43
2019-01-24T18:57:30.508Z,84.97
2019-01-24T19:02:31.807Z,90.37
2019-01-24T19:07:33.288Z,82.83
2019-01-24T19:12:34.665Z,81.43
2019-01-24T19:17:35.976Z,85.57
2019-01-24T19:22:37.545Z,90.70
2019-01-24T19:27:38.760Z,76.57
2019-01-24T19:32:40.088Z,82.50
2019-01-24T19:37:41.762Z,83.77
2019-01-24T19:42:43.161Z,74.40
2019-01-24T19:47:45.935Z,84.27
2019-01-24T19:52:47.863Z,88.07
2019-01-24T19:57:49.781Z,72.97
2019-01-24T20:02:51.401Z,70.73
2019-01-24T20:07:52.872Z,75.83
2019-01-24T20:12:54.349Z,67.60
2019-01-24T20:17:56.030Z,74.70
2019-01-24T20:22:57.227Z,67.10
2019-01-24T20:27:58.562Z,73.73
2019-01-24T20:33:00.697Z,69.17
2019-01-24T20:38:01.938Z,74.00
2019-01-24T20:43:05.755Z,86.70
2019-01-24T20:48:07.238Z,75.00
2019-01-24T20:53:09.524Z,72.67
2019-01-24T20:58:10.911Z,69.17
2019-01-24T21:03:12.057Z,73.10
2019-01-24T21:08:14.244Z,77.00
2019-01-24T21:13:17.030Z,77.37
2019-01-24T21:18:18.157Z,83.37
2019-01-24T21:23:19.273Z,95.53
2019-01-24T21:28:20.785Z,83.83
2019-01-24T21:33:21.920Z,78.93
2019-01-24T21:38:23.145Z,93.57
2019-01-24T21:43:24.240Z,86.83
2019-01-24T21:48:25.347Z,90.63
2019-01-24T21:53:26.460Z,72.93
2019-01-24T21:58:27.613Z,75.77
2019-01-24T22:03:28.800Z,74.70
2019-01-24T22:08:29.946Z,66.30
2019-01-24T22:13:31.043Z,75.53
2019-01-24T22:18:32.150Z,65.33
2019-01-24T22:23:33.367Z,61.93
2019-01-24T22:28:34.446Z,56.80
2019-01-24T22:33:35.560Z,60.87
2019-01-24T22:38:36.813Z,66.57
2019-01-24T22:43:37.915Z,56.60
2019-01-24T22:48:39.008Z,58.17
2019-01-24T22:53:40.111Z,54.93
2019-01-24T22:58:41.216Z,42.47
2019-01-24T23:03:43.616Z,48.37
2019-01-24T23:08:44.944Z,46.27
2019-01-24T23:13:46.046Z,47.20
2019-01-24T23:18:47.158Z,43.63
2019-01-24T23:23:48.279Z,41.60
2019-01-24T23:28:49.378Z,37.60
2019-01-24T23:33:50.844Z,41.03
2019-01-24T23:38:52.208Z,43.73
2019-01-24T23:43:53.303Z,40.80
2019-01-24T23:48:54.388Z,51.80
2019-01-24T23:53:55.483Z,39.33
2019-01-24T23:58:56.584Z,41.30
